Time;durP1;ratioP1;P1;durP2;ratioP2;P2;SDS_P1;SDS_P2;PMS_P1;PMS_P2;Temp;Humidity;BMP_temperature;BMP_pressure;BME280_temperature;BME280_humidity;BME280_pressure;Samples;Min_cycle;Max_cycle;Signal;HPM_P1;HPM_P2
2022/06/20 00:00:27;;;;;;;1.45;1.35;;;24.20;70.00;;;;;;5036667;28;20406;-21
2022/06/20 00:02:54;;;;;;;2.03;1.45;;;24.20;69.90;;;;;;5014516;28;20059;-20
2022/06/20 00:05:25;;;;;;;1.60;1.38;;;24.20;69.90;;;;;;5019031;28;20108;-20
2022/06/20 00:07:51;;;;;;;2.75;1.50;;;24.20;69.80;;;;;;5029197;28;20049;-20
2022/06/20 00:10:18;;;;;;;1.65;1.10;;;24.20;69.80;;;;;;5022037;28;20061;-21
2022/06/20 00:12:44;;;;;;;1.55;1.00;;;24.20;69.70;;;;;;5036284;28;20037;-21
2022/06/20 00:15:34;;;;;;;1.60;1.50;;;24.20;69.80;;;;;;5018643;28;20046;-20
2022/06/20 00:18:00;;;;;;;1.20;1.10;;;24.20;69.70;;;;;;5029182;28;20072;-21
2022/06/20 00:20:26;;;;;;;1.25;1.10;;;24.20;69.90;;;;;;5013256;28;20049;-22
2022/06/20 00:22:52;;;;;;;1.50;1.17;;;24.20;69.80;;;;;;5012094;28;20052;-21
2022/06/20 00:25:19;;;;;;;1.60;1.20;;;24.20;69.90;;;;;;5031593;28;20065;-21
2022/06/20 00:27:45;;;;;;;1.40;1.30;;;24.20;69.80;;;;;;5028652;28;20048;-21
2022/06/20 00:30:12;;;;;;;1.65;1.50;;;24.20;69.90;;;;;;5029241;28;20046;-20
2022/06/20 00:32:37;;;;;;;1.30;1.20;;;24.20;69.90;;;;;;5011651;28;20071;-20
2022/06/20 00:35:03;;;;;;;1.20;1.10;;;24.20;69.90;;;;;;5009523;28;20081;-21
2022/06/20 00:37:29;;;;;;;1.58;1.23;;;24.20;69.90;;;;;;5029344;28;20516;-21
2022/06/20 00:39:54;;;;;;;1.52;1.30;;;24.20;70.00;;;;;;5026932;28;20730;-20
2022/06/20 00:42:20;;;;;;;2.10;1.10;;;24.20;69.90;;;;;;5027968;28;20507;-23
2022/06/20 00:44:49;;;;;;;1.48;1.38;;;24.20;70.10;;;;;;5028677;28;20104;-21
2022/06/20 00:47:21;;;;;;;1.60;1.40;;;24.20;70.10;;;;;;5008023;28;20402;-22
2022/06/20 00:50:07;;;;;;;1.40;1.20;;;24.20;70.10;;;;;;5032422;28;20060;-22
2022/06/20 00:52:39;;;;;;;1.00;0.90;;;24.20;70.00;;;;;;5036212;28;20570;-21
2022/06/20 00:55:14;;;;;;;1.50;1.30;;;24.10;70.90;;;;;;5013163;28;20121;-20
2022/06/20 00:57:54;;;;;;;1.38;1.23;;;24.10;70.10;;;;;;5034630;28;20033;-21
2022/06/20 01:00:25;;;;;;;1.08;1.05;;;24.10;70.20;;;;;;5031212;28;20403;-20
2022/06/20 01:03:08;;;;;;;1.48;1.17;;;24.10;70.20;;;;;;5029095;28;20050;-21
2022/06/20 01:05:48;;;;;;;2.50;1.17;;;24.10;70.20;;;;;;5031397;28;20144;-21
2022/06/20 01:08:22;;;;;;;1.13;1.02;;;24.10;70.30;;;;;;5029429;28;20315;-20
2022/06/20 01:11:06;;;;;;;2.67;1.45;;;24.10;70.20;;;;;;5012464;28;20041;-21
2022/06/20 01:13:32;;;;;;;1.20;1.10;;;24.10;70.10;;;;;;5030002;28;20053;-21
2022/06/20 01:16:12;;;;;;;1.10;1.10;;;24.10;70.10;;;;;;5029402;28;20049;-21
2022/06/20 01:18:38;;;;;;;1.35;1.25;;;24.10;70.20;;;;;;5031531;28;20453;-21
2022/06/20 01:21:08;;;;;;;1.30;1.20;;;24.10;70.10;;;;;;5017181;28;20049;-21
2022/06/20 01:23:52;;;;;;;1.10;1.00;;;24.10;70.10;;;;;;5012665;28;20045;-21
2022/06/20 01:26:42;;;;;;;1.17;1.08;;;24.10;70.70;;;;;;5029761;28;20045;-20
2022/06/20 01:29:08;;;;;;;1.10;1.00;;;24.10;70.00;;;;;;5027230;28;20068;-21
2022/06/20 01:31:37;;;;;;;2.30;1.30;;;24.10;70.00;;;;;;5023815;28;20473;-21
2022/06/20 01:34:03;;;;;;;1.27;1.17;;;24.10;69.90;;;;;;5024785;28;20037;-21
2022/06/20 01:39:14;;;;;;;1.30;1.20;;;24.10;69.90;;;;;;5021118;28;20112;-21
2022/06/20 01:44:24;;;;;;;;;;;24.10;69.80;;;;;;5018905;28;20056;-21
2022/06/20 01:46:50;;;;;;;1.40;1.25;;;24.10;69.70;;;;;;5032143;28;19917;-20
2022/06/20 01:49:21;;;;;;;1.63;1.20;;;24.10;69.80;;;;;;5033300;28;20037;-21
2022/06/20 01:52:03;;;;;;;1.25;1.15;;;24.10;69.90;;;;;;5034619;28;20486;-20
2022/06/20 01:54:30;;;;;;;1.50;1.13;;;24.10;69.80;;;;;;5030602;28;20049;-21
2022/06/20 01:56:55;;;;;;;1.20;1.10;;;24.00;69.90;;;;;;5028927;28;20050;-21
2022/06/20 01:59:35;;;;;;;1.05;0.95;;;24.00;69.70;;;;;;5028811;28;20917;-20
2022/06/20 02:02:00;;;;;;;1.35;1.25;;;24.10;69.70;;;;;;5035620;28;20049;-20
2022/06/20 02:04:28;;;;;;;1.30;1.20;;;24.00;69.70;;;;;;5016087;28;20092;-21
2022/06/20 02:06:54;;;;;;;1.10;1.00;;;24.10;69.60;;;;;;5027842;28;20060;-21
2022/06/20 02:09:19;;;;;;;1.00;0.90;;;24.10;69.50;;;;;;5030373;28;20100;-20
2022/06/20 02:11:46;;;;;;;1.13;1.02;;;24.00;69.70;;;;;;5024581;28;20041;-22
2022/06/20 02:14:14;;;;;;;1.38;1.27;;;24.00;69.60;;;;;;5033639;28;20068;-20
2022/06/20 02:16:41;;;;;;;1.13;1.02;;;24.00;69.50;;;;;;5016968;28;20049;-21
2022/06/20 02:19:07;;;;;;;0.85;0.75;;;24.00;69.60;;;;;;5030187;28;20053;-20
2022/06/20 02:21:33;;;;;;;1.48;1.25;;;24.10;69.50;;;;;;5015252;28;20045;-20
2022/06/20 02:24:06;;;;;;;1.50;1.40;;;24.10;69.50;;;;;;5031107;28;20045;-22
2022/06/20 02:26:31;;;;;;;0.75;0.75;;;24.10;69.50;;;;;;5025620;28;20530;-20
2022/06/20 02:29:23;;;;;;;1.08;0.93;;;24.10;69.60;;;;;;5033294;28;20410;-21
2022/06/20 02:32:18;;;;;;;1.60;1.20;;;24.10;69.50;;;;;;5029106;28;20065;-21
2022/06/20 02:34:44;;;;;;;1.55;1.02;;;24.10;69.50;;;;;;5032196;28;20053;-21
2022/06/20 02:37:11;;;;;;;1.27;1.17;;;24.00;69.60;;;;;;5028345;28;20048;-21
2022/06/20 02:39:40;;;;;;;1.30;1.00;;;24.00;69.80;;;;;;5029912;28;20517;-22
2022/06/20 02:42:08;;;;;;;1.10;1.00;;;24.00;69.70;;;;;;5023009;28;20033;-20
2022/06/20 02:44:34;;;;;;;0.98;0.85;;;24.00;69.80;;;;;;5033316;28;20060;-22
2022/06/20 02:47:03;;;;;;;1.08;1.02;;;24.00;69.50;;;;;;5033523;28;20041;-22
2022/06/20 02:49:28;;;;;;;1.17;0.98;;;24.00;69.50;;;;;;5026430;28;20049;-21
2022/06/20 02:51:54;;;;;;;2.08;1.50;;;24.10;69.70;;;;;;5032966;28;20045;-22
2022/06/20 02:54:21;;;;;;;1.58;1.13;;;24.00;69.70;;;;;;5016115;28;20179;-22
2022/06/20 02:56:51;;;;;;;1.13;0.90;;;24.00;69.80;;;;;;5014255;28;20042;-22
2022/06/20 02:59:28;;;;;;;1.75;1.27;;;24.00;69.70;;;;;;5009980;28;20057;-23
2022/06/20 03:02:13;;;;;;;1.38;1.10;;;24.00;69.60;;;;;;5033884;28;20049;-22
2022/06/20 03:04:41;;;;;;;1.33;1.10;;;24.00;69.60;;;;;;5017835;28;20128;-22
2022/06/20 03:07:12;;;;;;;1.00;1.00;;;24.00;69.40;;;;;;5032604;28;20054;-22
2022/06/20 03:09:39;;;;;;;1.27;1.17;;;24.00;69.50;;;;;;5032801;28;20052;-22
2022/06/20 03:12:05;;;;;;;0.90;0.90;;;24.00;69.80;;;;;;5031810;28;20057;-21
2022/06/20 03:14:37;;;;;;;1.10;1.00;;;24.00;69.70;;;;;;5011999;28;20052;-21
2022/06/20 03:17:04;;;;;;;1.52;1.10;;;24.00;69.70;;;;;;5016374;28;20046;-22
2022/06/20 03:19:32;;;;;;;1.25;1.15;;;24.00;69.70;;;;;;5031198;28;20065;-21
2022/06/20 03:22:06;;;;;;;1.10;1.00;;;24.00;69.70;;;;;;5030307;28;20045;-21
2022/06/20 03:24:32;;;;;;;1.20;1.10;;;24.00;69.60;;;;;;5030936;28;20064;-21
2022/06/20 03:26:59;;;;;;;1.33;1.13;;;24.00;69.70;;;;;;5025129;28;20502;-22
2022/06/20 03:29:25;;;;;;;1.10;1.00;;;24.00;69.60;;;;;;5016704;28;20041;-21
2022/06/20 03:31:51;;;;;;;0.98;0.93;;;24.00;69.40;;;;;;5032146;28;20072;-22
2022/06/20 03:34:17;;;;;;;1.27;1.17;;;24.00;69.40;;;;;;5011018;28;20137;-21
2022/06/20 03:36:43;;;;;;;1.98;1.10;;;24.00;69.50;;;;;;5014002;28;20053;-22
2022/06/20 03:39:09;;;;;;;0.98;0.98;;;24.00;69.50;;;;;;5025512;28;20067;-22
2022/06/20 03:41:34;;;;;;;1.33;1.20;;;24.00;69.50;;;;;;5028139;28;20046;-21
2022/06/20 03:44:05;;;;;;;0.88;0.88;;;24.00;69.60;;;;;;5031877;28;20043;-22
2022/06/20 03:46:53;;;;;;;1.15;1.05;;;24.00;69.50;;;;;;5023859;28;20072;-21
2022/06/20 03:49:28;;;;;;;1.20;1.10;;;24.00;69.50;;;;;;5026304;28;20081;-22
2022/06/20 03:52:06;;;;;;;1.05;0.95;;;24.00;69.60;;;;;;5024946;28;20041;-21
2022/06/20 03:54:37;;;;;;;1.40;1.10;;;24.00;69.40;;;;;;5028107;28;21443;-21
2022/06/20 03:57:10;;;;;;;1.13;1.00;;;24.00;69.50;;;;;;5025211;28;20045;-22
2022/06/20 03:59:54;;;;;;;1.30;1.20;;;24.00;69.40;;;;;;5033076;28;20049;-22
2022/06/20 04:02:31;;;;;;;;;;;24.00;69.30;;;;;;5025447;28;20059;-22
2022/06/20 04:05:18;;;;;;;1.30;1.08;;;24.00;69.30;;;;;;5025109;28;19917;-22
2022/06/20 04:07:53;;;;;;;0.90;0.90;;;24.00;69.40;;;;;;5032142;28;20041;-22
2022/06/20 04:13:25;;;;;;;1.13;1.02;;;24.00;69.40;;;;;;5024833;28;20068;-22
2022/06/20 04:15:54;;;;;;;1.23;1.15;;;24.00;69.40;;;;;;5008591;28;20076;-22
2022/06/20 04:18:29;;;;;;;1.20;1.10;;;24.00;69.40;;;;;;5030732;28;20045;-33
2022/06/20 04:21:05;;;;;;;1.10;1.00;;;24.00;69.40;;;;;;5030708;28;20045;-22
2022/06/20 04:23:34;;;;;;;1.23;1.10;;;24.00;69.50;;;;;;5032692;28;20391;-21
2022/06/20 04:26:11;;;;;;;2.42;1.15;;;24.00;69.40;;;;;;5031484;28;20444;-22
2022/06/20 04:28:52;;;;;;;1.40;1.30;;;24.00;69.40;;;;;;5032039;28;20050;-21
2022/06/20 04:31:25;;;;;;;1.05;1.02;;;24.00;69.40;;;;;;5024659;28;20046;-22
2022/06/20 04:34:19;;;;;;;3.05;1.23;;;24.00;69.60;;;;;;5029653;28;20050;-22
2022/06/20 04:36:53;;;;;;;3.20;0.90;;;24.00;69.60;;;;;;5028345;28;20053;-22
2022/06/20 04:39:49;;;;;;;2.47;1.27;;;23.90;69.40;;;;;;5031865;28;20498;-22
2022/06/20 04:42:25;;;;;;;2.58;1.10;;;24.00;69.50;;;;;;5029863;28;20072;-22
2022/06/20 04:45:23;;;;;;;1.27;1.13;;;24.00;69.40;;;;;;5016084;28;20045;-22
2022/06/20 04:48:06;;;;;;;1.00;1.00;;;24.00;69.40;;;;;;5011422;28;20046;-21
2022/06/20 04:50:32;;;;;;;1.10;1.10;;;23.90;69.40;;;;;;5031789;28;20045;-21
2022/06/20 04:53:05;;;;;;;1.73;1.00;;;23.90;69.50;;;;;;5032916;28;20060;-22
2022/06/20 04:55:32;;;;;;;1.30;1.20;;;24.00;69.40;;;;;;5019568;28;20049;-23
2022/06/20 04:57:59;;;;;;;0.90;0.90;;;24.00;69.40;;;;;;5029165;28;20063;-22
2022/06/20 05:00:30;;;;;;;1.67;1.23;;;23.90;69.40;;;;;;5026025;28;20063;-22
2022/06/20 05:02:55;;;;;;;1.30;1.20;;;24.00;69.40;;;;;;5028310;28;20042;-22
2022/06/20 05:05:23;;;;;;;1.60;1.25;;;24.00;69.20;;;;;;5032413;28;20085;-22
2022/06/20 05:07:49;;;;;;;3.88;1.95;;;24.00;69.40;;;;;;4678719;28;9999909;-22
2022/06/20 05:10:16;;;;;;;4.57;2.78;;;23.80;69.20;;;;;;5027008;28;20045;-19
2022/06/20 05:12:59;;;;;;;6.50;3.15;;;23.70;69.90;;;;;;5013463;28;20037;-23
2022/06/20 05:15:30;;;;;;;7.38;3.85;;;23.40;70.30;;;;;;5029913;28;20045;-22
2022/06/20 05:17:56;;;;;;;6.47;3.35;;;23.40;70.60;;;;;;5030645;28;20041;-22
2022/06/20 05:20:34;;;;;;;8.45;2.95;;;23.30;70.90;;;;;;4667551;28;10000456;-23
2022/06/20 05:23:03;;;;;;;4.95;3.40;;;23.20;71.30;;;;;;5033548;28;20038;-22
2022/06/20 05:25:28;;;;;;;6.63;3.20;;;23.10;71.50;;;;;;5040290;28;20041;-23
2022/06/20 05:28:00;;;;;;;6.13;3.20;;;23.00;72.10;;;;;;5026038;28;20086;-23
2022/06/20 05:30:30;;;;;;;5.40;3.08;;;23.10;72.00;;;;;;5032303;28;20045;-22
2022/06/20 05:33:10;;;;;;;8.13;3.53;;;22.90;72.50;;;;;;5010217;28;20068;-22
2022/06/20 05:35:57;;;;;;;6.15;3.63;;;23.00;72.40;;;;;;5023776;28;20403;-21
2022/06/20 05:38:31;;;;;;;6.20;3.00;;;22.90;73.00;;;;;;5029226;28;20056;-22
2022/06/20 05:40:57;;;;;;;6.45;3.85;;;22.70;73.50;;;;;;5012014;28;20481;-21
2022/06/20 05:43:23;;;;;;;7.82;3.60;;;22.60;74.10;;;;;;5007263;28;20053;-21
2022/06/20 05:45:59;;;;;;;9.32;4.00;;;22.60;74.30;;;;;;5005979;28;20061;-22
2022/06/20 05:48:28;;;;;;;6.53;3.35;;;22.70;74.40;;;;;;5008719;28;20073;-21
2022/06/20 05:50:57;;;;;;;6.00;3.55;;;22.50;74.80;;;;;;5017767;28;20059;-22
2022/06/20 05:53:33;;;;;;;6.28;3.88;;;22.50;74.90;;;;;;5026015;28;20064;-22
2022/06/20 05:55:59;;;;;;;5.93;4.03;;;22.50;74.70;;;;;;5020782;28;20475;-20
2022/06/20 05:58:31;;;;;;;5.93;3.53;;;22.60;74.40;;;;;;5020906;28;20104;-22
2022/06/20 06:00:59;;;;;;;6.47;3.72;;;22.40;75.10;;;;;;5022513;28;20049;-22
2022/06/20 06:03:30;;;;;;;9.27;3.60;;;22.40;75.30;;;;;;5019882;28;20041;-20
2022/06/20 06:06:07;;;;;;;9.25;3.50;;;22.30;75.60;;;;;;5026426;28;20152;-21
2022/06/20 06:08:51;;;;;;;11.25;4.72;;;22.40;75.70;;;;;;5028079;28;20461;-22
2022/06/20 06:11:25;;;;;;;6.18;3.95;;;22.10;76.70;;;;;;5026657;28;20077;-22
2022/06/20 06:13:57;;;;;;;9.30;4.18;;;22.10;77.60;;;;;;5023765;28;20077;-21
2022/06/20 06:16:51;;;;;;;7.13;3.58;;;22.10;77.10;;;;;;5022043;28;20045;-22
2022/06/20 06:19:37;;;;;;;8.40;3.53;;;22.20;76.70;;;;;;5010335;28;20084;-22
2022/06/20 06:22:36;;;;;;;8.88;5.32;;;22.20;76.50;;;;;;5027153;28;20140;-21
2022/06/20 06:25:30;;;;;;;7.75;3.88;;;22.20;76.80;;;;;;5015755;28;20048;-21
2022/06/20 06:28:07;;;;;;;6.95;3.40;;;22.10;76.80;;;;;;5023642;28;20106;-21
2022/06/20 06:30:45;;;;;;;6.50;4.47;;;22.20;76.90;;;;;;5024291;28;20050;-21
2022/06/20 06:33:28;;;;;;;6.07;4.28;;;22.10;77.20;;;;;;5023687;28;20065;-21
2022/06/20 06:36:18;;;;;;;7.45;4.03;;;22.10;76.70;;;;;;5025785;28;20044;-22
2022/06/20 06:38:50;;;;;;;10.75;4.00;;;22.00;77.00;;;;;;5025346;28;20522;-21
2022/06/20 06:41:26;;;;;;;6.55;4.40;;;22.10;77.30;;;;;;4993463;28;20045;-22
2022/06/20 06:43:54;;;;;;;9.10;4.35;;;22.00;77.70;;;;;;5012087;28;20049;-23
2022/06/20 06:46:22;;;;;;;5.43;3.50;;;22.00;77.70;;;;;;4998256;28;20072;-22
2022/06/20 06:48:52;;;;;;;8.27;3.88;;;22.00;77.60;;;;;;5022764;28;20049;-21
2022/06/20 06:51:20;;;;;;;5.57;3.33;;;22.10;77.40;;;;;;5024786;28;20567;-21
2022/06/20 06:53:52;;;;;;;5.30;3.42;;;22.20;77.20;;;;;;5020645;28;20038;-22
2022/06/20 06:56:37;;;;;;;5.28;2.97;;;22.30;76.80;;;;;;5022899;28;20540;-21
2022/06/20 06:59:09;;;;;;;4.32;2.85;;;22.50;76.70;;;;;;5020519;28;20129;-23
2022/06/20 07:01:38;;;;;;;5.60;2.42;;;22.60;76.30;;;;;;5026126;28;20048;-21
2022/06/20 07:04:16;;;;;;;5.85;2.53;;;22.60;76.20;;;;;;5021221;28;20457;-22
2022/06/20 07:06:49;;;;;;;3.35;2.95;;;22.70;76.10;;;;;;4997114;28;20045;-22
2022/06/20 07:09:35;;;;;;;4.60;2.95;;;22.70;75.50;;;;;;5012207;28;20045;-22
2022/06/20 07:12:06;;;;;;;6.20;3.25;;;22.70;75.40;;;;;;5021126;28;20053;-21
2022/06/20 07:14:35;;;;;;;5.95;3.63;;;22.60;76.20;;;;;;5025080;28;20055;-22
2022/06/20 07:17:11;;;;;;;8.38;3.67;;;22.60;75.90;;;;;;4672857;28;10000693;-21
2022/06/20 07:19:39;;;;;;;5.65;3.67;;;22.80;75.80;;;;;;5007598;28;20573;-23
2022/06/20 07:22:05;;;;;;;5.18;3.65;;;22.80;75.80;;;;;;5002274;28;20057;-23
2022/06/20 07:24:32;;;;;;;5.75;3.80;;;22.70;75.50;;;;;;5018482;28;20595;-22
2022/06/20 07:27:13;;;;;;;4.40;3.88;;;22.70;75.80;;;;;;5017697;28;20041;-23
2022/06/20 07:29:48;;;;;;;5.78;4.43;;;22.60;76.30;;;;;;5019782;28;20061;-22
2022/06/20 07:32:19;;;;;;;4.18;3.80;;;22.70;76.00;;;;;;5009713;28;20104;-22
2022/06/20 07:34:57;;;;;;;7.05;4.38;;;22.70;76.10;;;;;;5008241;28;20501;-22
2022/06/20 07:37:31;;;;;;;7.68;4.13;;;22.70;75.90;;;;;;5020862;28;20041;-23
2022/06/20 07:40:04;;;;;;;5.95;4.18;;;22.60;75.80;;;;;;5022411;28;20037;-22
2022/06/20 07:42:35;;;;;;;9.43;4.50;;;22.60;75.90;;;;;;5020562;28;20103;-21
2022/06/20 07:45:11;;;;;;;5.22;3.72;;;22.70;75.70;;;;;;5023868;28;20296;-21
2022/06/20 07:47:42;;;;;;;6.10;3.90;;;22.80;75.10;;;;;;5010238;28;20050;-22
2022/06/20 07:50:10;;;;;;;6.38;4.13;;;22.80;74.80;;;;;;5008502;28;20052;-22
2022/06/20 07:52:41;;;;;;;3.53;3.00;;;22.90;74.60;;;;;;5007365;28;20568;-21
2022/06/20 07:55:18;;;;;;;5.35;3.10;;;23.00;74.90;;;;;;4970901;28;20111;-22
2022/06/20 07:57:47;;;;;;;6.68;4.07;;;23.10;74.00;;;;;;5006548;28;20094;-21
2022/06/20 08:00:23;;;;;;;5.30;3.40;;;23.10;74.00;;;;;;4992268;28;20087;-21
2022/06/20 08:02:55;;;;;;;7.40;3.95;;;23.10;74.00;;;;;;5023315;28;20054;-21
2022/06/20 08:05:43;;;;;;;3.65;3.00;;;23.20;73.80;;;;;;5021805;28;20038;-22
2022/06/20 08:08:26;;;;;;;7.70;3.50;;;23.20;73.90;;;;;;5005887;28;20057;-22
2022/06/20 08:11:02;;;;;;;11.23;3.40;;;23.30;75.30;;;;;;5027655;28;20072;-21
2022/06/20 08:13:45;;;;;;;12.48;3.53;;;23.30;74.90;;;;;;5010790;28;20033;-21
2022/06/20 08:16:24;;;;;;;3.20;2.90;;;23.30;73.90;;;;;;5018948;28;20045;-22
2022/06/20 08:18:50;;;;;;;8.65;3.20;;;23.40;73.60;;;;;;5030480;28;20045;-22
2022/06/20 08:21:20;;;;;;;5.35;3.58;;;23.40;73.60;;;;;;5017907;28;20045;-22
2022/06/20 08:23:48;;;;;;;8.13;3.45;;;23.40;73.70;;;;;;5025005;28;20068;-33
2022/06/20 08:26:18;;;;;;;8.75;2.72;;;23.40;73.30;;;;;;5038305;28;20514;-32
2022/06/20 08:28:57;;;;;;;5.07;2.47;;;23.40;73.40;;;;;;5031816;28;20065;-33
2022/06/20 08:31:33;;;;;;;7.90;3.20;;;23.50;73.10;;;;;;5019532;28;20253;-31
2022/06/20 08:34:11;;;;;;;5.53;2.90;;;23.40;73.20;;;;;;5027649;28;20041;-29
2022/06/20 08:36:49;;;;;;;4.03;3.00;;;23.40;73.40;;;;;;5029464;28;20087;-30
2022/06/20 08:39:17;;;;;;;6.25;2.90;;;23.40;73.10;;;;;;5028197;28;20054;-30
2022/06/20 08:42:02;;;;;;;4.68;2.50;;;23.40;73.00;;;;;;5035223;28;20498;-30
2022/06/20 08:44:31;;;;;;;3.40;2.55;;;23.50;72.60;;;;;;5009219;28;20049;-30
2022/06/20 08:47:21;;;;;;;6.97;2.92;;;23.60;72.40;;;;;;5022862;28;20057;-20
2022/06/20 08:50:02;;;;;;;5.57;2.40;;;23.60;72.20;;;;;;5027807;28;20070;-23
2022/06/20 08:52:52;;;;;;;3.50;2.47;;;23.70;72.00;;;;;;5025101;28;20459;-24
2022/06/20 08:55:33;;;;;;;3.28;2.80;;;23.70;72.10;;;;;;5019932;28;20058;-23
2022/06/20 08:58:20;;;;;;;5.68;3.10;;;23.70;72.20;;;;;;5030472;28;20052;-24
2022/06/20 09:00:55;;;;;;;4.90;2.63;;;23.70;72.00;;;;;;5024034;28;20093;-24
2022/06/20 09:03:44;;;;;;;3.38;2.33;;;23.70;72.10;;;;;;5020805;28;20045;-25
2022/06/20 09:06:25;;;;;;;4.82;2.10;;;23.60;72.30;;;;;;5029288;28;20457;-24
2022/06/20 09:09:16;;;;;;;2.80;2.50;;;23.60;72.50;;;;;;5035223;28;20052;-25
2022/06/20 09:11:48;;;;;;;8.55;2.60;;;23.70;72.70;;;;;;5020852;28;20041;-24
2022/06/20 09:14:32;;;;;;;3.60;2.58;;;23.60;73.30;;;;;;5026719;28;20041;-24
2022/06/20 09:17:03;;;;;;;2.97;2.67;;;23.70;72.60;;;;;;5028618;28;20045;-25
2022/06/20 09:19:34;;;;;;;2.67;2.47;;;23.80;72.50;;;;;;5031943;28;20107;-24
2022/06/20 09:22:07;;;;;;;2.53;2.30;;;23.80;72.50;;;;;;5026666;28;20037;-24
2022/06/20 09:24:55;;;;;;;3.08;2.28;;;23.70;72.70;;;;;;5030218;28;20557;-25
2022/06/20 09:27:30;;;;;;;3.00;2.70;;;23.80;72.40;;;;;;5022650;28;20056;-25
2022/06/20 09:30:11;;;;;;;2.63;2.42;;;23.80;72.70;;;;;;5028956;28;20044;-24
2022/06/20 09:32:51;;;;;;;3.03;2.70;;;23.80;72.60;;;;;;5030978;28;20033;-25
2022/06/20 09:35:38;;;;;;;5.03;2.83;;;23.90;72.30;;;;;;5016199;28;20069;-24
2022/06/20 09:38:07;;;;;;;6.75;2.72;;;23.90;72.20;;;;;;5026761;28;20061;-24
2022/06/20 09:40:49;;;;;;;5.53;2.63;;;23.90;72.50;;;;;;5032680;28;20060;-25
2022/06/20 09:43:39;;;;;;;7.35;4.00;;;23.90;72.40;;;;;;5030839;28;20485;-24
2022/06/20 09:46:05;;;;;;;7.28;3.95;;;24.00;72.00;;;;;;5012424;28;20140;-25
2022/06/20 09:48:45;;;;;;;9.98;4.70;;;24.00;71.70;;;;;;5026866;28;20124;-25
2022/06/20 09:51:20;;;;;;;6.35;4.75;;;24.00;71.30;;;;;;5033106;28;20045;-24
2022/06/20 09:54:12;;;;;;;6.18;3.45;;;24.00;71.10;;;;;;5025059;28;20567;-25
2022/06/20 09:56:50;;;;;;;10.07;3.17;;;23.90;71.90;;;;;;5030335;28;20049;-25
2022/06/20 09:59:30;;;;;;;5.75;3.25;;;23.90;72.90;;;;;;5027481;28;20095;-25
2022/06/20 10:02:28;;;;;;;6.70;3.20;;;23.90;72.30;;;;;;5026966;28;20156;-25
2022/06/20 10:05:13;;;;;;;5.03;2.78;;;23.90;72.10;;;;;;5022381;28;20041;-25
2022/06/20 10:07:47;;;;;;;6.22;3.13;;;24.00;71.70;;;;;;5029136;28;20046;-24
2022/06/20 10:10:36;;;;;;;4.07;3.15;;;23.90;71.80;;;;;;5022414;28;20050;-25
2022/06/20 10:13:23;;;;;;;3.55;3.08;;;23.90;71.90;;;;;;5020716;28;20067;-25
2022/06/20 10:16:06;;;;;;;3.83;2.97;;;23.90;71.90;;;;;;5023323;28;20496;-24
2022/06/20 10:19:00;;;;;;;5.25;2.58;;;24.00;71.60;;;;;;5027723;28;20103;-25
2022/06/20 10:21:40;;;;;;;4.00;3.37;;;24.10;71.40;;;;;;5026056;28;21672;-27
2022/06/20 10:24:34;;;;;;;6.20;2.78;;;24.20;71.10;;;;;;4677827;28;9999714;-24
2022/06/20 10:27:34;;;;;;;5.07;2.63;;;24.00;71.10;;;;;;5016764;28;20666;-26
2022/06/20 10:30:10;;;;;;;4.20;2.20;;;24.00;71.30;;;;;;5024148;28;20077;-25
2022/06/20 10:32:56;;;;;;;2.88;2.50;;;24.10;71.30;;;;;;5022541;28;20061;-24
2022/06/20 10:35:34;;;;;;;5.32;2.70;;;24.10;70.90;;;;;;5026735;28;20068;-24
2022/06/20 10:38:08;;;;;;;3.03;2.53;;;24.10;70.60;;;;;;5025946;28;20037;-24
2022/06/20 10:40:58;;;;;;;6.07;2.70;;;24.10;70.70;;;;;;5004410;28;20080;-25
2022/06/20 10:43:35;;;;;;;5.93;2.45;;;24.10;70.50;;;;;;5024129;28;20057;-25
2022/06/20 10:46:11;;;;;;;3.28;2.45;;;24.10;70.60;;;;;;5023631;28;20133;-25
2022/06/20 10:48:43;;;;;;;5.55;2.30;;;24.10;70.70;;;;;;5016161;28;20108;-24
2022/06/20 10:51:21;;;;;;;4.38;2.22;;;24.10;70.60;;;;;;5015530;28;20703;-25
2022/06/20 10:53:52;;;;;;;3.88;2.58;;;24.20;70.80;;;;;;5023057;28;20077;-24
2022/06/20 10:56:21;;;;;;;4.05;2.67;;;24.10;71.10;;;;;;5019424;28;20160;-25
2022/06/20 10:58:54;;;;;;;10.05;2.38;;;24.10;70.90;;;;;;5018389;28;20045;-25
2022/06/20 11:01:24;;;;;;;4.60;2.60;;;24.20;70.90;;;;;;5023573;28;20588;-25
2022/06/20 11:04:02;;;;;;;4.25;2.25;;;24.20;71.10;;;;;;5024324;28;20041;-25
2022/06/20 11:06:33;;;;;;;2.70;2.33;;;24.20;70.90;;;;;;5015381;28;20104;-25
2022/06/20 11:09:26;;;;;;;9.73;2.83;;;24.20;71.20;;;;;;5007954;28;20038;-25
2022/06/20 11:12:05;;;;;;;3.42;2.40;;;24.30;71.10;;;;;;5007890;28;20140;-25
2022/06/20 11:14:45;;;;;;;3.75;2.30;;;24.30;71.70;;;;;;5020858;28;20049;-24
2022/06/20 11:17:35;;;;;;;2.38;2.17;;;24.30;71.20;;;;;;5021113;28;20526;-23
2022/06/20 11:20:17;;;;;;;3.22;2.10;;;24.30;71.00;;;;;;5018932;28;20037;-25
2022/06/20 11:23:16;;;;;;;2.67;2.10;;;24.30;71.60;;;;;;5026418;28;20510;-24
2022/06/20 11:26:10;;;;;;;3.75;2.35;;;24.30;71.20;;;;;;5021003;28;20053;-25
2022/06/20 11:29:10;;;;;;;2.17;2.00;;;24.30;71.60;;;;;;5030284;28;20458;-25
2022/06/20 11:31:35;;;;;;;5.25;2.47;;;24.30;72.00;;;;;;5025784;28;20061;-24
2022/06/20 11:34:19;;;;;;;2.40;2.03;;;24.40;71.20;;;;;;5028039;28;20041;-25
2022/06/20 11:37:12;;;;;;;2.25;2.05;;;24.40;71.10;;;;;;5021802;28;20671;-25
2022/06/20 11:40:06;;;;;;;2.53;2.05;;;24.40;71.30;;;;;;5022131;28;20045;-24
2022/06/20 11:42:37;;;;;;;4.88;2.28;;;24.40;70.70;;;;;;5018972;28;20049;-25
2022/06/20 11:45:22;;;;;;;3.15;2.22;;;24.40;70.80;;;;;;5024971;28;20037;-26
2022/06/20 11:48:09;;;;;;;2.30;2.10;;;24.40;71.10;;;;;;5027914;28;20068;-24
2022/06/20 11:50:41;;;;;;;2.92;2.38;;;24.40;70.40;;;;;;5021782;28;20670;-25
2022/06/20 11:53:36;;;;;;;4.03;2.20;;;24.40;71.20;;;;;;5021591;28;20038;-26
2022/06/20 11:56:27;;;;;;;6.78;2.28;;;24.50;71.40;;;;;;4998071;28;20047;-25
2022/06/20 11:58:58;;;;;;;2.38;1.98;;;24.50;71.10;;;;;;5021626;28;20114;-25
2022/06/20 12:01:59;;;;;;;2.03;1.92;;;24.50;71.10;;;;;;5016334;28;20052;-25
2022/06/20 12:04:32;;;;;;;2.65;2.00;;;24.50;71.50;;;;;;5012494;28;20045;-25
2022/06/20 12:07:20;;;;;;;2.00;1.90;;;24.50;71.10;;;;;;5018599;28;20056;-24
2022/06/20 12:09:52;;;;;;;3.35;2.22;;;24.50;71.00;;;;;;5026833;28;20053;-25
2022/06/20 12:12:27;;;;;;;2.38;2.17;;;24.50;70.50;;;;;;5020772;28;20037;-25
2022/06/20 12:15:25;;;;;;;2.30;2.08;;;24.50;71.40;;;;;;5027749;28;20125;-25
2022/06/20 12:18:29;;;;;;;3.30;1.98;;;24.50;71.30;;;;;;5020629;28;20443;-25
2022/06/20 12:23:53;;;;;;;3.40;2.72;;;24.50;71.30;;;;;;5016839;28;20044;-24
2022/06/20 12:26:32;;;;;;;5.10;3.35;;;24.50;72.20;;;;;;5017097;28;20517;-25
2022/06/20 12:28:59;;;;;;;6.78;3.50;;;24.60;72.00;;;;;;5018050;28;20046;-24
2022/06/20 12:31:29;;;;;;;3.65;3.33;;;24.60;72.10;;;;;;5024648;28;20041;-26
2022/06/20 12:34:15;;;;;;;3.97;3.00;;;24.60;72.10;;;;;;5022133;28;20042;-24
2022/06/20 12:37:19;;;;;;;6.75;4.18;;;24.60;71.70;;;;;;5020203;28;20080;-25
2022/06/20 12:39:48;;;;;;;8.37;4.30;;;24.60;72.20;;;;;;5032673;28;20071;-25
2022/06/20 12:42:37;;;;;;;11.63;5.20;;;24.60;71.70;;;;;;5032473;28;20042;-25
2022/06/20 12:45:30;;;;;;;10.32;4.78;;;24.70;72.00;;;;;;5018969;28;20045;-25
2022/06/20 12:48:14;;;;;;;7.22;3.67;;;24.70;71.10;;;;;;5014276;28;20046;-25
2022/06/20 12:50:43;;;;;;;10.75;3.70;;;24.70;71.50;;;;;;5023039;28;20050;-25
2022/06/20 12:53:44;;;;;;;5.93;3.42;;;24.70;71.30;;;;;;5019907;28;20129;-27
2022/06/20 12:56:22;;;;;;;8.65;3.05;;;24.70;72.10;;;;;;5018748;28;20087;-25
2022/06/20 12:59:12;;;;;;;5.38;3.10;;;24.70;72.60;;;;;;5028194;28;20046;-25
2022/06/20 13:02:03;;;;;;;5.15;3.58;;;24.60;71.80;;;;;;5022605;28;20081;-24
2022/06/20 13:04:43;;;;;;;5.32;3.45;;;24.70;71.30;;;;;;5024467;28;20038;-25
2022/06/20 13:07:47;;;;;;;3.63;3.30;;;24.70;72.20;;;;;;5030677;28;20047;-25
2022/06/20 13:10:24;;;;;;;3.83;3.30;;;24.70;71.50;;;;;;5001136;28;20037;-25
2022/06/20 13:12:49;;;;;;;6.55;3.00;;;24.70;71.70;;;;;;4959906;28;20065;-25
2022/06/20 13:15:21;;;;;;;8.93;3.30;;;24.70;71.20;;;;;;5020648;28;20080;-26
2022/06/20 13:17:52;;;;;;;6.70;3.28;;;24.70;70.70;;;;;;4678376;28;9999661;-24
2022/06/20 13:20:29;;;;;;;3.20;2.90;;;24.80;71.60;;;;;;5031628;28;20044;-25
2022/06/20 13:23:14;;;;;;;4.85;3.55;;;24.70;70.80;;;;;;5031204;28;20094;-25
2022/06/20 13:25:57;;;;;;;3.92;3.08;;;24.80;71.40;;;;;;5032391;28;20445;-24
2022/06/20 13:28:33;;;;;;;4.72;3.22;;;24.70;71.60;;;;;;5028600;28;20092;-26
2022/06/20 13:31:09;;;;;;;4.30;3.00;;;24.70;71.50;;;;;;5030478;28;20053;-25
2022/06/20 13:34:15;;;;;;;4.95;3.03;;;24.80;71.30;;;;;;5028936;28;20552;-25
2022/06/20 13:36:56;;;;;;;4.07;3.05;;;24.80;70.90;;;;;;5024179;28;20124;-25
2022/06/20 13:39:41;;;;;;;3.33;3.03;;;24.80;71.40;;;;;;5027648;28;20526;-25
2022/06/20 13:42:43;;;;;;;3.67;2.80;;;24.80;70.80;;;;;;5027961;28;20045;-25